Startpagina
METAR-TAF:

METAR-TAF

Vliegvelden :

Schaffen

Diest, België

breedte: 51-00N, lengte: 005-04E, hoogte: 30 m

Actueel weer

Dit bericht is 34 minuten geleden gemaakt, om 18:25 UTC
Wind 2 kt uit variabele richting
Temperatuur 18°C
Vochtigheid 64%
Druk 1014 hPa
Zicht 10 km of meer

METAR: EBDT 151825Z AUTO VRB02KT 9999 NCD 18/11 Q1014 BLU

Tijdstip: 20:59 (18:59 UTC)

Verwachting

Dit bericht is 3 uur en het 18 minuten geleden gemaakt, om 15:41 UTC
Verwachting geldig van 15 om 19 UTC tot 16 om 07 UTC
Wind 5 kt uit het zuiden
Zicht 10 km of meer
Verspreide wolken op 12000 ft
Kans 30% :
Tijdelijke
van 15 om 22 UTC tot 23 om 07 UTC
Zicht: 6000 m

TAF: EBDT 151541Z 1519/1607 17005KT 9999 SCT120 PROB30 TEMPO 1522/2307 6000

Waarnemingen en weersverwachtingen van meer dan 4000 vliegvelden (METAR en TAF).

De beschikbare stations zijn de gele en rode punten op de kaart.

Ga met uw muis naar het station om de naam te zien.

Klik dan om waarnemingen en weersverwachtingen te zien.

kaart wijzigen: klik op de groene knoppen met een zwart kruis om in te zoomen, op de groene knop met een streepje om uit te zoomen of op de groene pijlen voor aangrenzende kaarten.


METAR-TAF: